sensor_id;sensor_type;location;lat;lon;timestamp;pressure;altitude;pressure_sealevel;temperature;humidity
33845;BME280;20145;43.118;25.694;2022-07-29T00:00:07;99468.88;;;22.09;84.79
33845;BME280;20145;43.118;25.694;2022-07-29T00:02:33;99465.69;;;22.03;85.84
33845;BME280;20145;43.118;25.694;2022-07-29T00:04:59;99466.34;;;22.07;84.85
33845;BME280;20145;43.118;25.694;2022-07-29T00:07:25;99465.41;;;22.08;86.05
33845;BME280;20145;43.118;25.694;2022-07-29T00:09:50;99468.03;;;22.08;85.88
33845;BME280;20145;43.118;25.694;2022-07-29T00:12:17;99475.25;;;22.04;84.30
33845;BME280;20145;43.118;25.694;2022-07-29T00:14:42;99469.16;;;22.04;84.84
33845;BME280;20145;43.118;25.694;2022-07-29T00:17:08;99469.53;;;21.98;84.48
33845;BME280;20145;43.118;25.694;2022-07-29T00:19:34;99472.16;;;21.98;84.92
33845;BME280;20145;43.118;25.694;2022-07-29T00:22:00;99472.38;;;21.79;84.76
33845;BME280;20145;43.118;25.694;2022-07-29T00:24:26;99472.31;;;21.65;86.32
33845;BME280;20145;43.118;25.694;2022-07-29T00:26:51;99475.09;;;21.61;86.94
33845;BME280;20145;43.118;25.694;2022-07-29T00:29:17;99473.56;;;21.57;86.88
33845;BME280;20145;43.118;25.694;2022-07-29T00:31:43;99478.66;;;21.60;87.11
33845;BME280;20145;43.118;25.694;2022-07-29T00:34:08;99478.41;;;21.65;86.34
33845;BME280;20145;43.118;25.694;2022-07-29T00:36:54;99477.28;;;21.69;86.45
33845;BME280;20145;43.118;25.694;2022-07-29T00:39:19;99483.13;;;21.74;85.55
33845;BME280;20145;43.118;25.694;2022-07-29T00:41:45;99481.16;;;21.78;83.99
33845;BME280;20145;43.118;25.694;2022-07-29T00:44:10;99482.34;;;21.72;83.60
33845;BME280;20145;43.118;25.694;2022-07-29T00:46:36;99483.38;;;21.70;85.16
33845;BME280;20145;43.118;25.694;2022-07-29T00:49:02;99483.22;;;21.73;83.32
33845;BME280;20145;43.118;25.694;2022-07-29T00:51:27;99481.88;;;21.66;84.89
33845;BME280;20145;43.118;25.694;2022-07-29T00:53:53;99483.56;;;21.67;83.80
33845;BME280;20145;43.118;25.694;2022-07-29T00:56:19;99475.19;;;21.60;84.23
33845;BME280;20145;43.118;25.694;2022-07-29T00:58:46;99472.81;;;21.55;83.85
33845;BME280;20145;43.118;25.694;2022-07-29T01:01:13;99477.22;;;21.39;84.27
33845;BME280;20145;43.118;25.694;2022-07-29T01:03:39;99464.34;;;21.34;85.86
33845;BME280;20145;43.118;25.694;2022-07-29T01:06:04;99470.59;;;21.16;84.17
33845;BME280;20145;43.118;25.694;2022-07-29T01:08:31;99468.38;;;21.08;85.24
33845;BME280;20145;43.118;25.694;2022-07-29T01:10:59;99472.34;;;21.00;85.86
33845;BME280;20145;43.118;25.694;2022-07-29T01:13:25;99457.72;;;20.96;86.03
33845;BME280;20145;43.118;25.694;2022-07-29T01:16:00;99450.16;;;20.89;86.34
33845;BME280;20145;43.118;25.694;2022-07-29T01:18:34;99448.47;;;20.88;86.68
33845;BME280;20145;43.118;25.694;2022-07-29T01:29:38;99448.84;;;21.30;85.22
33845;BME280;20145;43.118;25.694;2022-07-29T01:40:27;99436.22;;;21.52;82.01
33845;BME280;20145;43.118;25.694;2022-07-29T01:42:57;99450.97;;;21.39;81.39
33845;BME280;20145;43.118;25.694;2022-07-29T01:48:03;99446.31;;;21.12;82.94
33845;BME280;20145;43.118;25.694;2022-07-29T01:50:35;99441.47;;;21.05;83.63
33845;BME280;20145;43.118;25.694;2022-07-29T01:53:06;99441.88;;;20.97;85.23
33845;BME280;20145;43.118;25.694;2022-07-29T01:55:36;99443.91;;;20.92;84.86
33845;BME280;20145;43.118;25.694;2022-07-29T01:58:05;99454.38;;;20.92;86.29
33845;BME280;20145;43.118;25.694;2022-07-29T02:00:32;99451.13;;;21.04;84.78
33845;BME280;20145;43.118;25.694;2022-07-29T02:03:00;99445.44;;;20.96;84.35
33845;BME280;20145;43.118;25.694;2022-07-29T02:05:29;99446.03;;;20.85;83.85
33845;BME280;20145;43.118;25.694;2022-07-29T02:07:58;99447.19;;;20.80;84.40
33845;BME280;20145;43.118;25.694;2022-07-29T02:10:27;99451.66;;;20.78;85.03
33845;BME280;20145;43.118;25.694;2022-07-29T02:12:55;99443.19;;;20.72;84.84
33845;BME280;20145;43.118;25.694;2022-07-29T02:15:24;99455.50;;;20.88;83.77
33845;BME280;20145;43.118;25.694;2022-07-29T02:17:55;99455.00;;;20.97;83.91
33845;BME280;20145;43.118;25.694;2022-07-29T02:20:22;99459.22;;;21.00;82.77
33845;BME280;20145;43.118;25.694;2022-07-29T02:22:51;99443.56;;;20.82;81.63
33845;BME280;20145;43.118;25.694;2022-07-29T02:25:17;99460.47;;;20.77;83.20
33845;BME280;20145;43.118;25.694;2022-07-29T02:27:44;99453.69;;;20.72;82.55
33845;BME280;20145;43.118;25.694;2022-07-29T02:30:11;99449.44;;;20.70;83.40
33845;BME280;20145;43.118;25.694;2022-07-29T02:32:39;99459.09;;;20.69;82.90
33845;BME280;20145;43.118;25.694;2022-07-29T02:35:07;99449.44;;;20.70;83.40
33845;BME280;20145;43.118;25.694;2022-07-29T02:37:33;99448.53;;;20.71;83.54
33845;BME280;20145;43.118;25.694;2022-07-29T02:40:00;99458.34;;;20.67;81.73
33845;BME280;20145;43.118;25.694;2022-07-29T02:42:27;99451.66;;;20.62;84.22
33845;BME280;20145;43.118;25.694;2022-07-29T02:44:54;99456.47;;;20.69;83.89
33845;BME280;20145;43.118;25.694;2022-07-29T02:47:55;99454.56;;;20.73;83.94
33845;BME280;20145;43.118;25.694;2022-07-29T02:50:34;99459.19;;;20.68;83.91
33845;BME280;20145;43.118;25.694;2022-07-29T02:53:08;99460.88;;;20.69;85.78
33845;BME280;20145;43.118;25.694;2022-07-29T02:55:40;99461.25;;;20.79;83.24
33845;BME280;20145;43.118;25.694;2022-07-29T03:00:47;99469.91;;;20.97;83.50
33845;BME280;20145;43.118;25.694;2022-07-29T03:03:15;99475.50;;;21.06;82.62
33845;BME280;20145;43.118;25.694;2022-07-29T03:05:41;99463.22;;;21.07;81.94
33845;BME280;20145;43.118;25.694;2022-07-29T03:08:10;99459.75;;;20.90;80.77
33845;BME280;20145;43.118;25.694;2022-07-29T03:10:37;99466.13;;;20.69;81.05
33845;BME280;20145;43.118;25.694;2022-07-29T03:13:04;99464.41;;;20.50;83.39
33845;BME280;20145;43.118;25.694;2022-07-29T03:15:31;99472.94;;;20.38;83.39
33845;BME280;20145;43.118;25.694;2022-07-29T03:17:58;99469.16;;;20.26;83.99
33845;BME280;20145;43.118;25.694;2022-07-29T03:20:24;99468.47;;;20.23;84.08
33845;BME280;20145;43.118;25.694;2022-07-29T03:22:50;99471.78;;;20.26;84.56
33845;BME280;20145;43.118;25.694;2022-07-29T03:25:18;99484.72;;;20.30;85.39
33845;BME280;20145;43.118;25.694;2022-07-29T03:27:44;99474.25;;;20.30;84.72
33845;BME280;20145;43.118;25.694;2022-07-29T03:30:11;99486.19;;;20.35;84.44
33845;BME280;20145;43.118;25.694;2022-07-29T03:32:38;99485.25;;;20.36;84.60
33845;BME280;20145;43.118;25.694;2022-07-29T03:35:05;99489.66;;;20.36;84.22
33845;BME280;20145;43.118;25.694;2022-07-29T03:37:31;99494.56;;;20.42;85.14
33845;BME280;20145;43.118;25.694;2022-07-29T03:39:59;99493.25;;;20.50;84.93
33845;BME280;20145;43.118;25.694;2022-07-29T03:42:28;99494.28;;;20.65;83.97
33845;BME280;20145;43.118;25.694;2022-07-29T03:44:57;99488.06;;;20.84;83.64
33845;BME280;20145;43.118;25.694;2022-07-29T03:47:25;99494.44;;;20.96;83.52
33845;BME280;20145;43.118;25.694;2022-07-29T03:49:56;99488.47;;;21.09;82.17
33845;BME280;20145;43.118;25.694;2022-07-29T03:52:25;99496.91;;;21.30;82.38
33845;BME280;20145;43.118;25.694;2022-07-29T03:54:51;99511.59;;;21.50;80.89
33845;BME280;20145;43.118;25.694;2022-07-29T03:57:18;99511.34;;;21.71;80.14
33845;BME280;20145;43.118;25.694;2022-07-29T03:59:46;99524.19;;;21.91;79.61
33845;BME280;20145;43.118;25.694;2022-07-29T04:02:12;99522.97;;;22.13;79.31
33845;BME280;20145;43.118;25.694;2022-07-29T04:04:38;99531.75;;;22.27;78.56
33845;BME280;20145;43.118;25.694;2022-07-29T04:07:04;99529.41;;;22.67;77.02
33845;BME280;20145;43.118;25.694;2022-07-29T04:09:30;99535.75;;;23.08;74.74
33845;BME280;20145;43.118;25.694;2022-07-29T04:11:56;99535.75;;;23.22;76.13
33845;BME280;20145;43.118;25.694;2022-07-29T04:14:21;99535.13;;;23.60;75.60
33845;BME280;20145;43.118;25.694;2022-07-29T04:16:47;99534.75;;;23.93;74.44
33845;BME280;20145;43.118;25.694;2022-07-29T04:19:13;99536.47;;;24.34;72.94
33845;BME280;20145;43.118;25.694;2022-07-29T04:21:41;99532.72;;;24.51;73.60
33845;BME280;20145;43.118;25.694;2022-07-29T04:24:07;99531.53;;;24.55;73.38
33845;BME280;20145;43.118;25.694;2022-07-29T04:26:33;99532.72;;;24.51;73.92
33845;BME280;20145;43.118;25.694;2022-07-29T04:28:59;99541.91;;;24.84;73.41
33845;BME280;20145;43.118;25.694;2022-07-29T04:31:24;99537.56;;;25.08;71.83
33845;BME280;20145;43.118;25.694;2022-07-29T04:33:50;99540.63;;;25.28;70.60
33845;BME280;20145;43.118;25.694;2022-07-29T04:36:16;99542.69;;;25.48;70.00
33845;BME280;20145;43.118;25.694;2022-07-29T04:38:42;99539.44;;;25.69;69.27
33845;BME280;20145;43.118;25.694;2022-07-29T04:41:07;99532.31;;;25.82;68.87
33845;BME280;20145;43.118;25.694;2022-07-29T04:43:35;99532.53;;;25.92;68.60
33845;BME280;20145;43.118;25.694;2022-07-29T04:46:01;99544.16;;;25.89;67.58
33845;BME280;20145;43.118;25.694;2022-07-29T04:48:27;99545.66;;;25.80;67.74
33845;BME280;20145;43.118;25.694;2022-07-29T04:50:52;99551.78;;;25.81;67.59
33845;BME280;20145;43.118;25.694;2022-07-29T04:53:18;99544.56;;;25.96;67.37
33845;BME280;20145;43.118;25.694;2022-07-29T04:55:44;99547.38;;;26.06;67.99
33845;BME280;20145;43.118;25.694;2022-07-29T04:58:10;99550.91;;;26.17;68.56
33845;BME280;20145;43.118;25.694;2022-07-29T05:00:36;99534.47;;;26.25;67.11
33845;BME280;20145;43.118;25.694;2022-07-29T05:03:02;99545.59;;;26.17;67.76
33845;BME280;20145;43.118;25.694;2022-07-29T05:05:28;99552.44;;;26.09;68.01
33845;BME280;20145;43.118;25.694;2022-07-29T05:07:53;99541.56;;;26.00;67.88
33845;BME280;20145;43.118;25.694;2022-07-29T05:10:19;99544.81;;;26.04;68.55
33845;BME280;20145;43.118;25.694;2022-07-29T05:12:45;99552.75;;;26.04;68.21
33845;BME280;20145;43.118;25.694;2022-07-29T05:15:10;99552.47;;;25.96;68.28
33845;BME280;20145;43.118;25.694;2022-07-29T05:17:36;99552.09;;;25.76;68.60
33845;BME280;20145;43.118;25.694;2022-07-29T05:20:03;99553.91;;;25.76;67.31
33845;BME280;20145;43.118;25.694;2022-07-29T05:22:28;99559.28;;;25.74;67.18
33845;BME280;20145;43.118;25.694;2022-07-29T05:24:54;99565.09;;;25.92;67.43
33845;BME280;20145;43.118;25.694;2022-07-29T05:27:20;99569.19;;;25.96;66.62
33845;BME280;20145;43.118;25.694;2022-07-29T05:29:45;99570.38;;;25.92;66.40
33845;BME280;20145;43.118;25.694;2022-07-29T05:32:12;99566.59;;;26.08;65.26
33845;BME280;20145;43.118;25.694;2022-07-29T05:34:37;99572.97;;;26.05;65.78
33845;BME280;20145;43.118;25.694;2022-07-29T05:37:03;99566.66;;;26.19;66.22
33845;BME280;20145;43.118;25.694;2022-07-29T05:39:29;99564.34;;;26.14;66.41
33845;BME280;20145;43.118;25.694;2022-07-29T05:41:54;99559.72;;;26.29;65.79
33845;BME280;20145;43.118;25.694;2022-07-29T05:44:20;99568.06;;;26.36;66.55
33845;BME280;20145;43.118;25.694;2022-07-29T05:46:45;99563.69;;;26.35;66.95
33845;BME280;20145;43.118;25.694;2022-07-29T05:49:11;99559.38;;;26.34;66.37
33845;BME280;20145;43.118;25.694;2022-07-29T05:51:37;99567.56;;;26.31;67.17
33845;BME280;20145;43.118;25.694;2022-07-29T05:54:03;99566.63;;;26.43;66.55
33845;BME280;20145;43.118;25.694;2022-07-29T05:56:28;99565.31;;;26.48;65.98
33845;BME280;20145;43.118;25.694;2022-07-29T05:58:54;99568.72;;;26.26;66.97
33845;BME280;20145;43.118;25.694;2022-07-29T06:01:20;99569.31;;;26.19;66.91
33845;BME280;20145;43.118;25.694;2022-07-29T06:03:46;99570.84;;;26.45;67.11
33845;BME280;20145;43.118;25.694;2022-07-29T06:06:11;99571.22;;;26.52;67.23
33845;BME280;20145;43.118;25.694;2022-07-29T06:08:37;99567.41;;;26.56;67.16
33845;BME280;20145;43.118;25.694;2022-07-29T06:11:04;99573.69;;;26.66;66.72
33845;BME280;20145;43.118;25.694;2022-07-29T06:13:30;99574.47;;;26.91;66.77
33845;BME280;20145;43.118;25.694;2022-07-29T06:15:56;99587.34;;;26.96;65.33
33845;BME280;20145;43.118;25.694;2022-07-29T06:18:22;99579.63;;;26.81;67.19
33845;BME280;20145;43.118;25.694;2022-07-29T06:20:52;99571.69;;;27.04;67.04
33845;BME280;20145;43.118;25.694;2022-07-29T06:23:19;99572.94;;;27.22;66.22
33845;BME280;20145;43.118;25.694;2022-07-29T06:25:45;99573.88;;;27.21;65.97
33845;BME280;20145;43.118;25.694;2022-07-29T06:28:12;99576.41;;;27.11;65.99
33845;BME280;20145;43.118;25.694;2022-07-29T06:30:39;99575.66;;;26.98;65.52
33845;BME280;20145;43.118;25.694;2022-07-29T06:33:05;99578.47;;;27.08;66.29
33845;BME280;20145;43.118;25.694;2022-07-29T06:35:33;99576.66;;;27.08;65.34
33845;BME280;20145;43.118;25.694;2022-07-29T06:38:00;99576.78;;;27.18;63.34
33845;BME280;20145;43.118;25.694;2022-07-29T06:40:26;99577.13;;;27.13;63.62
33845;BME280;20145;43.118;25.694;2022-07-29T06:43:10;99573.06;;;27.21;63.88
33845;BME280;20145;43.118;25.694;2022-07-29T06:45:36;99574.84;;;27.09;62.57
33845;BME280;20145;43.118;25.694;2022-07-29T06:48:02;99561.59;;;26.98;63.64
33845;BME280;20145;43.118;25.694;2022-07-29T06:50:27;99570.25;;;27.11;62.51
33845;BME280;20145;43.118;25.694;2022-07-29T06:52:53;99558.69;;;27.12;62.25
33845;BME280;20145;43.118;25.694;2022-07-29T06:55:18;99570.88;;;27.26;62.59
33845;BME280;20145;43.118;25.694;2022-07-29T06:57:45;99561.84;;;27.28;61.26
33845;BME280;20145;43.118;25.694;2022-07-29T07:00:12;99557.38;;;27.40;61.03
33845;BME280;20145;43.118;25.694;2022-07-29T07:02:38;99559.91;;;27.53;60.56
33845;BME280;20145;43.118;25.694;2022-07-29T07:05:04;99557.47;;;27.72;59.31
33845;BME280;20145;43.118;25.694;2022-07-29T07:07:31;99565.88;;;27.89;58.59
33845;BME280;20145;43.118;25.694;2022-07-29T07:09:56;99566.44;;;28.03;59.69
33845;BME280;20145;43.118;25.694;2022-07-29T07:12:22;99568.91;;;27.73;58.31
33845;BME280;20145;43.118;25.694;2022-07-29T07:14:48;99562.25;;;27.78;58.94
33845;BME280;20145;43.118;25.694;2022-07-29T07:17:13;99568.53;;;27.89;60.35
33845;BME280;20145;43.118;25.694;2022-07-29T07:19:39;99564.66;;;27.93;59.30
33845;BME280;20145;43.118;25.694;2022-07-29T07:22:04;99575.91;;;28.17;59.05
33845;BME280;20145;43.118;25.694;2022-07-29T07:24:31;99562.44;;;28.09;60.53
33845;BME280;20145;43.118;25.694;2022-07-29T07:26:57;99556.53;;;28.06;60.03
33845;BME280;20145;43.118;25.694;2022-07-29T07:29:22;99568.25;;;28.35;60.12
33845;BME280;20145;43.118;25.694;2022-07-29T07:31:48;99574.09;;;28.50;59.18
33845;BME280;20145;43.118;25.694;2022-07-29T07:34:14;99571.44;;;28.50;59.40
33845;BME280;20145;43.118;25.694;2022-07-29T07:36:40;99570.53;;;28.61;58.07
33845;BME280;20145;43.118;25.694;2022-07-29T07:39:05;99568.22;;;28.46;57.50
33845;BME280;20145;43.118;25.694;2022-07-29T07:41:31;99565.19;;;28.40;57.90
33845;BME280;20145;43.118;25.694;2022-07-29T07:43:56;99564.25;;;28.62;56.39
33845;BME280;20145;43.118;25.694;2022-07-29T07:46:22;99561.22;;;28.66;56.07
33845;BME280;20145;43.118;25.694;2022-07-29T07:48:47;99558.69;;;28.65;55.13
33845;BME280;20145;43.118;25.694;2022-07-29T07:51:13;99557.84;;;28.85;54.83
33845;BME280;20145;43.118;25.694;2022-07-29T07:53:39;99559.06;;;28.81;52.94
33845;BME280;20145;43.118;25.694;2022-07-29T07:56:04;99558.44;;;28.99;53.69
33845;BME280;20145;43.118;25.694;2022-07-29T07:58:31;99551.53;;;29.07;53.30
33845;BME280;20145;43.118;25.694;2022-07-29T08:00:57;99551.28;;;29.20;49.33
33845;BME280;20145;43.118;25.694;2022-07-29T08:03:23;99548.78;;;29.19;48.61
33845;BME280;20145;43.118;25.694;2022-07-29T08:05:48;99553.72;;;29.33;48.84
33845;BME280;20145;43.118;25.694;2022-07-29T08:08:16;99551.41;;;29.49;48.98
33845;BME280;20145;43.118;25.694;2022-07-29T08:10:41;99548.38;;;29.64;49.95
33845;BME280;20145;43.118;25.694;2022-07-29T08:13:23;99556.50;;;29.72;47.22
33845;BME280;20145;43.118;25.694;2022-07-29T08:15:51;99539.50;;;29.53;47.08
33845;BME280;20145;43.118;25.694;2022-07-29T08:18:23;99547.19;;;29.56;48.25
33845;BME280;20145;43.118;25.694;2022-07-29T08:20:50;99552.00;;;29.63;48.45
33845;BME280;20145;43.118;25.694;2022-07-29T08:23:16;99546.25;;;29.57;48.19
33845;BME280;20145;43.118;25.694;2022-07-29T08:25:42;99537.59;;;29.65;48.38
33845;BME280;20145;43.118;25.694;2022-07-29T08:28:08;99547.53;;;29.73;47.84
33845;BME280;20145;43.118;25.694;2022-07-29T08:30:34;99551.59;;;29.67;47.18
33845;BME280;20145;43.118;25.694;2022-07-29T08:33:00;99541.47;;;29.61;47.44
33845;BME280;20145;43.118;25.694;2022-07-29T08:35:26;99542.09;;;29.74;46.51
33845;BME280;20145;43.118;25.694;2022-07-29T08:37:52;99526.72;;;29.88;47.70
33845;BME280;20145;43.118;25.694;2022-07-29T08:40:19;99542.53;;;29.89;46.29
33845;BME280;20145;43.118;25.694;2022-07-29T08:42:45;99533.31;;;29.93;46.38
33845;BME280;20145;43.118;25.694;2022-07-29T08:45:11;99531.06;;;30.08;47.10
33845;BME280;20145;43.118;25.694;2022-07-29T08:47:39;99531.03;;;29.98;45.45
33845;BME280;20145;43.118;25.694;2022-07-29T08:50:09;99530.22;;;30.08;45.35
33845;BME280;20145;43.118;25.694;2022-07-29T08:52:41;99527.41;;;30.09;45.02
33845;BME280;20145;43.118;25.694;2022-07-29T08:55:08;99522.66;;;30.22;45.05
33845;BME280;20145;43.118;25.694;2022-07-29T08:57:37;99511.56;;;30.37;45.33
33845;BME280;20145;43.118;25.694;2022-07-29T09:00:05;99519.72;;;30.35;44.85
33845;BME280;20145;43.118;25.694;2022-07-29T09:02:35;99517.59;;;30.39;43.88
33845;BME280;20145;43.118;25.694;2022-07-29T09:05:04;99521.38;;;30.46;44.89
33845;BME280;20145;43.118;25.694;2022-07-29T09:07:30;99516.00;;;30.65;43.62
33845;BME280;20145;43.118;25.694;2022-07-29T09:09:56;99511.53;;;30.66;44.02
33845;BME280;20145;43.118;25.694;2022-07-29T09:12:22;99509.66;;;30.76;43.78
33845;BME280;20145;43.118;25.694;2022-07-29T09:14:50;99504.19;;;30.87;44.49
33845;BME280;20145;43.118;25.694;2022-07-29T09:17:16;99508.81;;;30.85;42.09
33845;BME280;20145;43.118;25.694;2022-07-29T09:19:43;99502.94;;;30.82;42.23
33845;BME280;20145;43.118;25.694;2022-07-29T09:22:08;99503.94;;;30.71;41.97
33845;BME280;20145;43.118;25.694;2022-07-29T09:24:43;99490.38;;;30.45;42.05
33845;BME280;20145;43.118;25.694;2022-07-29T09:27:21;99500.03;;;30.65;43.07
33845;BME280;20145;43.118;25.694;2022-07-29T09:29:55;99504.47;;;30.75;41.28
33845;BME280;20145;43.118;25.694;2022-07-29T09:32:21;99501.38;;;30.89;40.15
33845;BME280;20145;43.118;25.694;2022-07-29T09:34:46;99499.84;;;31.14;40.73
33845;BME280;20145;43.118;25.694;2022-07-29T09:37:25;99508.88;;;31.31;38.93
33845;BME280;20145;43.118;25.694;2022-07-29T09:39:51;99496.38;;;31.31;39.36
33845;BME280;20145;43.118;25.694;2022-07-29T09:42:28;99500.94;;;31.49;40.43
33845;BME280;20145;43.118;25.694;2022-07-29T09:44:53;99493.00;;;31.39;41.19
33845;BME280;20145;43.118;25.694;2022-07-29T09:47:19;99489.44;;;31.48;41.19
33845;BME280;20145;43.118;25.694;2022-07-29T09:52:18;99484.72;;;31.60;40.89
33845;BME280;20145;43.118;25.694;2022-07-29T09:54:44;99486.34;;;31.71;41.00
33845;BME280;20145;43.118;25.694;2022-07-29T09:57:23;99484.63;;;31.70;40.75
33845;BME280;20145;43.118;25.694;2022-07-29T10:02:35;99479.78;;;32.01;39.08
33845;BME280;20145;43.118;25.694;2022-07-29T10:05:04;99480.63;;;32.02;41.45
33845;BME280;20145;43.118;25.694;2022-07-29T10:07:49;99487.88;;;31.91;40.73
33845;BME280;20145;43.118;25.694;2022-07-29T10:10:26;99482.59;;;31.82;41.60
33845;BME280;20145;43.118;25.694;2022-07-29T10:13:02;99476.09;;;31.84;41.07
33845;BME280;20145;43.118;25.694;2022-07-29T10:15:30;99481.38;;;31.94;40.45
33845;BME280;20145;43.118;25.694;2022-07-29T10:17:58;99476.25;;;32.00;41.67
33845;BME280;20145;43.118;25.694;2022-07-29T10:20:24;99475.56;;;32.16;41.54
33845;BME280;20145;43.118;25.694;2022-07-29T10:22:51;99473.44;;;32.02;40.62
33845;BME280;20145;43.118;25.694;2022-07-29T10:25:17;99467.41;;;32.18;40.15
33845;BME280;20145;43.118;25.694;2022-07-29T10:27:44;99470.38;;;32.15;39.19
33845;BME280;20145;43.118;25.694;2022-07-29T10:30:10;99455.28;;;32.06;38.75
33845;BME280;20145;43.118;25.694;2022-07-29T10:38:10;99458.25;;;32.47;37.03
33845;BME280;20145;43.118;25.694;2022-07-29T10:44:15;99444.34;;;32.69;38.23
33845;BME280;20145;43.118;25.694;2022-07-29T10:46:42;99450.59;;;32.86;38.48
33845;BME280;20145;43.118;25.694;2022-07-29T10:49:18;99438.22;;;32.77;36.03
33845;BME280;20145;43.118;25.694;2022-07-29T10:54:18;99442.03;;;32.74;36.73
33845;BME280;20145;43.118;25.694;2022-07-29T10:56:44;99442.41;;;32.79;36.56
33845;BME280;20145;43.118;25.694;2022-07-29T11:01:49;99432.63;;;32.62;35.48
33845;BME280;20145;43.118;25.694;2022-07-29T11:05:16;99433.69;;;32.77;36.21
33845;BME280;20145;43.118;25.694;2022-07-29T11:07:11;99425.41;;;32.97;35.76
33845;BME280;20145;43.118;25.694;2022-07-29T11:09:37;99433.09;;;32.92;36.17
33845;BME280;20145;43.118;25.694;2022-07-29T11:15:01;99428.03;;;32.80;36.67
33845;BME280;20145;43.118;25.694;2022-07-29T11:17:28;99420.47;;;32.68;36.32
33845;BME280;20145;43.118;25.694;2022-07-29T11:22:59;99416.34;;;32.81;37.26
33845;BME280;20145;43.118;25.694;2022-07-29T11:25:24;99413.88;;;32.88;36.73
33845;BME280;20145;43.118;25.694;2022-07-29T11:27:52;99418.03;;;32.82;35.25
33845;BME280;20145;43.118;25.694;2022-07-29T11:30:19;99414.16;;;32.77;36.30
33845;BME280;20145;43.118;25.694;2022-07-29T11:32:45;99421.53;;;32.83;37.34
33845;BME280;20145;43.118;25.694;2022-07-29T11:35:22;99408.34;;;32.81;38.16
33845;BME280;20145;43.118;25.694;2022-07-29T11:38:25;99412.22;;;32.95;37.45
33845;BME280;20145;43.118;25.694;2022-07-29T11:41:26;99405.66;;;32.89;38.28
33845;BME280;20145;43.118;25.694;2022-07-29T11:43:58;99404.72;;;32.99;37.09
33845;BME280;20145;43.118;25.694;2022-07-29T11:46:47;99403.84;;;32.90;35.48
33845;BME280;20145;43.118;25.694;2022-07-29T11:49:34;99403.56;;;32.67;36.00
33845;BME280;20145;43.118;25.694;2022-07-29T11:52:00;99398.28;;;32.83;37.86
33845;BME280;20145;43.118;25.694;2022-07-29T11:54:33;99396.22;;;33.03;37.41
33845;BME280;20145;43.118;25.694;2022-07-29T11:56:59;99398.25;;;33.09;37.64
33845;BME280;20145;43.118;25.694;2022-07-29T11:59:25;99397.25;;;33.19;38.34
33845;BME280;20145;43.118;25.694;2022-07-29T12:01:59;99388.88;;;33.14;37.64
33845;BME280;20145;43.118;25.694;2022-07-29T12:04:25;99387.88;;;33.06;37.10
33845;BME280;20145;43.118;25.694;2022-07-29T12:06:55;99378.09;;;32.89;38.32
33845;BME280;20145;43.118;25.694;2022-07-29T12:09:22;99376.59;;;32.95;38.46
33845;BME280;20145;43.118;25.694;2022-07-29T12:11:58;99377.47;;;32.95;37.78
33845;BME280;20145;43.118;25.694;2022-07-29T12:14:30;99373.16;;;33.10;37.66
33845;BME280;20145;43.118;25.694;2022-07-29T12:16:56;99365.97;;;33.11;38.74
33845;BME280;20145;43.118;25.694;2022-07-29T12:19:22;99365.00;;;33.28;37.84
33845;BME280;20145;43.118;25.694;2022-07-29T12:21:50;99360.50;;;33.21;35.67
33845;BME280;20145;43.118;25.694;2022-07-29T12:24:17;99354.47;;;33.19;35.97
33845;BME280;20145;43.118;25.694;2022-07-29T12:26:57;99366.69;;;33.46;36.24
33845;BME280;20145;43.118;25.694;2022-07-29T12:29:24;99362.38;;;33.61;35.00
33845;BME280;20145;43.118;25.694;2022-07-29T12:31:53;99354.50;;;33.43;34.08
33845;BME280;20145;43.118;25.694;2022-07-29T12:34:22;99352.53;;;33.53;33.87
33845;BME280;20145;43.118;25.694;2022-07-29T12:36:49;99341.59;;;33.47;34.50
33845;BME280;20145;43.118;25.694;2022-07-29T12:39:18;99337.63;;;33.59;34.03
33845;BME280;20145;43.118;25.694;2022-07-29T12:41:44;99335.59;;;33.61;36.17
33845;BME280;20145;43.118;25.694;2022-07-29T12:44:10;99330.25;;;33.61;35.68
33845;BME280;20145;43.118;25.694;2022-07-29T12:46:36;99321.03;;;33.47;35.58
33845;BME280;20145;43.118;25.694;2022-07-29T12:49:02;99320.91;;;33.65;35.39
33845;BME280;20145;43.118;25.694;2022-07-29T12:51:36;99320.19;;;33.88;35.48
33845;BME280;20145;43.118;25.694;2022-07-29T12:54:10;99324.84;;;33.94;34.81
33845;BME280;20145;43.118;25.694;2022-07-29T12:56:40;99327.50;;;34.02;35.03
33845;BME280;20145;43.118;25.694;2022-07-29T12:59:21;99324.34;;;33.98;34.94
33845;BME280;20145;43.118;25.694;2022-07-29T13:01:49;99325.00;;;34.01;33.31
33845;BME280;20145;43.118;25.694;2022-07-29T13:06:59;99315.16;;;33.93;34.59
33845;BME280;20145;43.118;25.694;2022-07-29T13:09:37;99316.44;;;34.22;33.99
33845;BME280;20145;43.118;25.694;2022-07-29T13:12:09;99316.25;;;34.23;33.94
33845;BME280;20145;43.118;25.694;2022-07-29T13:17:18;99311.81;;;34.47;34.93
33845;BME280;20145;43.118;25.694;2022-07-29T13:20:03;99307.84;;;34.34;35.40
33845;BME280;20145;43.118;25.694;2022-07-29T13:22:29;99309.69;;;34.34;34.71
33845;BME280;20145;43.118;25.694;2022-07-29T13:24:58;99308.91;;;34.17;34.92
33845;BME280;20145;43.118;25.694;2022-07-29T13:27:26;99305.94;;;34.12;35.98
33845;BME280;20145;43.118;25.694;2022-07-29T13:29:54;99294.38;;;33.95;35.98
33845;BME280;20145;43.118;25.694;2022-07-29T13:32:22;99289.53;;;33.98;35.32
33845;BME280;20145;43.118;25.694;2022-07-29T13:34:48;99294.25;;;33.88;35.64
33845;BME280;20145;43.118;25.694;2022-07-29T13:37:14;99291.56;;;33.80;35.17
33845;BME280;20145;43.118;25.694;2022-07-29T13:39:40;99280.88;;;33.80;34.46
33845;BME280;20145;43.118;25.694;2022-07-29T13:42:06;99275.34;;;33.90;34.79
33845;BME280;20145;43.118;25.694;2022-07-29T13:44:33;99273.31;;;33.84;36.36
33845;BME280;20145;43.118;25.694;2022-07-29T13:46:58;99272.47;;;33.91;34.43